createdAt,value
2022-10-08T00:00:00.233Z,13.9
2022-10-08T00:01:03.005Z,13.9
2022-10-08T00:02:00.310Z,13.9
2022-10-08T00:03:00.265Z,13.8
2022-10-08T00:04:00.525Z,13.8
2022-10-08T00:05:00.227Z,13.8
2022-10-08T00:06:04.444Z,13.8
2022-10-08T00:07:00.229Z,13.8
2022-10-08T00:08:00.265Z,13.8
2022-10-08T00:09:03.416Z,13.8
2022-10-08T00:10:00.227Z,13.8
2022-10-08T00:11:04.199Z,13.7
2022-10-08T00:12:00.251Z,13.7
2022-10-08T00:13:00.907Z,13.7
2022-10-08T00:14:00.328Z,13.7
2022-10-08T00:15:00.246Z,13.7
2022-10-08T00:16:00.250Z,13.7
2022-10-08T00:17:00.220Z,13.7
2022-10-08T00:18:00.266Z,13.7
2022-10-08T00:19:04.760Z,13.7
2022-10-08T00:20:00.284Z,13.7
2022-10-08T00:21:09.930Z,13.7
2022-10-08T00:22:00.204Z,13.7
2022-10-08T00:23:00.237Z,13.6
2022-10-08T00:24:02.313Z,13.7
2022-10-08T00:25:00.240Z,13.6
2022-10-08T00:26:03.231Z,13.6
2022-10-08T00:27:00.213Z,13.7
2022-10-08T00:28:00.288Z,13.6
2022-10-08T00:29:03.261Z,13.6
2022-10-08T00:30:00.330Z,13.6
2022-10-08T00:31:06.533Z,13.6
2022-10-08T00:32:00.348Z,13.6
2022-10-08T00:33:00.232Z,13.6
2022-10-08T00:34:05.782Z,13.6
2022-10-08T00:35:00.251Z,13.6
2022-10-08T00:36:01.549Z,13.7
2022-10-08T00:37:00.213Z,13.7
2022-10-08T00:38:00.238Z,13.7
2022-10-08T00:39:04.735Z,13.7
2022-10-08T00:40:00.254Z,13.7
2022-10-08T00:41:00.484Z,13.6
2022-10-08T00:42:00.286Z,13.6
2022-10-08T00:43:00.234Z,13.6
2022-10-08T00:44:02.508Z,13.6
2022-10-08T00:45:01.105Z,13.6
2022-10-08T00:46:00.292Z,13.6
2022-10-08T00:47:00.286Z,13.6
2022-10-08T00:48:00.261Z,13.6
2022-10-08T00:49:14.012Z,13.5
2022-10-08T00:50:08.015Z,13.6
2022-10-08T00:51:00.317Z,13.6
2022-10-08T00:52:00.700Z,13.5
2022-10-08T00:53:03.871Z,13.5
2022-10-08T00:54:01.904Z,13.5
2022-10-08T00:55:01.631Z,13.5
2022-10-08T00:56:01.373Z,13.5
2022-10-08T00:57:00.232Z,13.5
2022-10-08T00:58:12.634Z,13.5
2022-10-08T00:59:00.798Z,13.5
2022-10-08T01:00:08.569Z,13.6
2022-10-08T01:01:00.928Z,13.6
2022-10-08T01:02:00.300Z,13.6
2022-10-08T01:03:00.370Z,13.6
2022-10-08T01:04:05.904Z,13.7
2022-10-08T01:05:02.026Z,13.7
2022-10-08T01:06:17.676Z,13.7
2022-10-08T01:07:06.086Z,13.7
2022-10-08T01:08:14.384Z,13.7
2022-10-08T01:09:06.987Z,13.7
2022-10-08T01:10:14.823Z,13.7
2022-10-08T01:11:17.099Z,13.7
2022-10-08T01:12:09.308Z,13.7
2022-10-08T01:13:13.416Z,13.8
2022-10-08T01:14:12.287Z,13.8
2022-10-08T01:15:12.652Z,13.8
2022-10-08T01:16:11.822Z,13.8
2022-10-08T01:17:12.482Z,13.8
2022-10-08T01:18:10.284Z,13.9
2022-10-08T01:19:01.224Z,13.9
2022-10-08T01:20:17.459Z,13.9
2022-10-08T01:21:13.422Z,13.9
2022-10-08T01:22:19.251Z,13.9
2022-10-08T01:23:03.476Z,13.9
2022-10-08T01:24:15.865Z,13.9
2022-10-08T01:25:19.177Z,13.9
2022-10-08T01:26:20.118Z,13.9
2022-10-08T01:27:05.528Z,13.9
2022-10-08T01:28:07.314Z,13.9
2022-10-08T01:29:14.065Z,13.9
2022-10-08T01:30:03.318Z,13.9
2022-10-08T01:31:07.949Z,13.9
2022-10-08T01:32:08.240Z,13.9
2022-10-08T01:33:12.139Z,13.9
2022-10-08T01:34:08.540Z,13.9
2022-10-08T01:35:05.093Z,13.9
2022-10-08T01:36:03.587Z,13.9
2022-10-08T01:37:03.165Z,13.9
2022-10-08T01:38:04.263Z,13.9
2022-10-08T01:39:05.492Z,13.9
2022-10-08T01:40:06.267Z,13.9
2022-10-08T01:41:05.344Z,13.8
2022-10-08T01:42:03.217Z,13.8
2022-10-08T01:43:04.296Z,13.8
2022-10-08T01:44:04.705Z,13.9
2022-10-08T01:45:03.926Z,13.9
2022-10-08T01:46:09.447Z,13.9
2022-10-08T01:47:05.918Z,13.9
2022-10-08T01:48:05.908Z,13.9
2022-10-08T01:49:05.693Z,13.9
2022-10-08T01:50:16.776Z,13.9
2022-10-08T01:51:13.836Z,13.9
2022-10-08T01:52:09.099Z,13.9
2022-10-08T01:53:06.386Z,14.0
2022-10-08T01:54:05.379Z,13.9
2022-10-08T01:55:06.261Z,14.0
2022-10-08T01:56:03.328Z,13.9
2022-10-08T01:57:03.667Z,13.9
2022-10-08T01:58:05.554Z,13.9
2022-10-08T01:59:05.511Z,13.9
2022-10-08T02:00:05.432Z,13.9
2022-10-08T02:01:07.368Z,13.9
2022-10-08T02:02:07.219Z,13.9
2022-10-08T02:03:00.925Z,13.9
2022-10-08T02:04:00.272Z,13.9
2022-10-08T02:05:00.262Z,13.9
2022-10-08T02:06:03.203Z,13.9
2022-10-08T02:07:02.186Z,13.9
2022-10-08T02:08:00.712Z,13.9
2022-10-08T02:09:00.397Z,13.9
2022-10-08T02:10:11.210Z,13.9
2022-10-08T02:11:00.364Z,13.9
2022-10-08T02:12:00.578Z,13.9
2022-10-08T02:13:00.478Z,13.8
2022-10-08T02:14:01.180Z,13.8
2022-10-08T02:15:01.078Z,13.8
2022-10-08T02:16:05.374Z,13.8
2022-10-08T02:17:09.593Z,13.9
2022-10-08T02:18:14.930Z,13.9
2022-10-08T02:19:10.293Z,13.9
2022-10-08T02:20:20.028Z,13.9
2022-10-08T02:21:07.593Z,13.9
2022-10-08T02:22:02.949Z,13.9
2022-10-08T02:23:09.887Z,13.8
2022-10-08T02:24:10.431Z,13.8
2022-10-08T02:25:13.742Z,13.8
2022-10-08T02:26:02.842Z,13.8
2022-10-08T02:27:02.504Z,13.8
2022-10-08T02:28:00.254Z,13.8
2022-10-08T02:29:09.597Z,13.8
2022-10-08T02:30:07.729Z,13.8
2022-10-08T02:31:11.164Z,13.8
2022-10-08T02:32:20.128Z,13.8
2022-10-08T02:33:07.072Z,13.8
2022-10-08T02:34:07.686Z,13.8
2022-10-08T02:35:09.225Z,13.8
2022-10-08T02:36:04.936Z,13.7
2022-10-08T02:37:09.447Z,13.7
2022-10-08T02:38:05.253Z,13.7
2022-10-08T02:39:03.638Z,13.7
2022-10-08T02:40:03.844Z,13.7
2022-10-08T02:41:03.978Z,13.7
2022-10-08T02:42:07.392Z,13.7
2022-10-08T02:43:07.399Z,13.8
2022-10-08T02:44:05.334Z,13.8
2022-10-08T02:45:05.405Z,13.8
2022-10-08T02:46:06.823Z,13.8
2022-10-08T02:47:04.921Z,13.8
2022-10-08T02:48:07.235Z,13.8
2022-10-08T02:49:05.135Z,13.8
2022-10-08T02:50:05.958Z,13.8
2022-10-08T02:51:04.582Z,13.8
2022-10-08T02:52:02.213Z,13.8
2022-10-08T02:53:01.263Z,13.8
2022-10-08T02:54:00.684Z,13.8
2022-10-08T02:55:03.679Z,13.8
2022-10-08T02:56:08.535Z,13.8
2022-10-08T02:57:10.402Z,13.8
2022-10-08T02:58:04.011Z,13.8
2022-10-08T02:59:01.398Z,13.8
2022-10-08T03:00:00.542Z,13.8
2022-10-08T03:01:08.692Z,13.8
2022-10-08T03:02:02.155Z,13.8
2022-10-08T03:03:07.608Z,13.8
2022-10-08T03:04:09.030Z,13.8
2022-10-08T03:05:04.507Z,13.8
2022-10-08T03:06:03.750Z,13.8
2022-10-08T03:07:00.253Z,13.8
2022-10-08T03:08:00.309Z,13.8
2022-10-08T03:09:01.869Z,13.9
2022-10-08T03:10:03.938Z,13.9
2022-10-08T03:11:00.529Z,13.9
2022-10-08T03:12:01.316Z,13.9
2022-10-08T03:13:01.408Z,13.9
2022-10-08T03:14:04.649Z,13.9
2022-10-08T03:15:00.573Z,13.9
2022-10-08T03:16:02.659Z,13.9
2022-10-08T03:17:00.475Z,13.9
2022-10-08T03:18:02.421Z,13.9
2022-10-08T03:19:02.548Z,13.9
2022-10-08T03:20:01.435Z,13.9
2022-10-08T03:21:00.515Z,13.9
2022-10-08T03:22:01.268Z,13.9
2022-10-08T03:23:00.689Z,13.9
2022-10-08T03:24:00.223Z,13.9
2022-10-08T03:25:00.241Z,14.0
2022-10-08T03:26:00.247Z,14.0
2022-10-08T03:27:00.236Z,14.0
2022-10-08T03:28:00.327Z,14.0
2022-10-08T03:29:00.790Z,14.0
2022-10-08T03:30:00.962Z,14.0
2022-10-08T03:31:04.122Z,14.0
2022-10-08T03:32:00.217Z,14.0
2022-10-08T03:33:00.603Z,14.0
2022-10-08T03:34:00.424Z,14.0
2022-10-08T03:35:00.240Z,14.0
2022-10-08T03:36:00.370Z,14.0
2022-10-08T03:37:00.285Z,14.0
2022-10-08T03:38:00.227Z,14.0
2022-10-08T03:39:00.306Z,14.0
2022-10-08T03:40:00.214Z,14.0
2022-10-08T03:41:00.241Z,14.0
2022-10-08T03:42:00.238Z,14.0
2022-10-08T03:43:00.234Z,14.0
2022-10-08T03:44:00.490Z,14.0
2022-10-08T03:45:00.235Z,14.0
2022-10-08T03:46:00.968Z,14.0
2022-10-08T03:47:00.243Z,14.0
2022-10-08T03:48:00.334Z,14.0
2022-10-08T03:49:00.275Z,14.0
2022-10-08T03:50:00.294Z,13.9
2022-10-08T03:51:04.963Z,13.9
2022-10-08T03:52:00.223Z,13.9
2022-10-08T03:53:00.210Z,13.9
2022-10-08T03:54:00.559Z,13.9
2022-10-08T03:55:00.208Z,14.0
2022-10-08T03:56:01.934Z,14.0
2022-10-08T03:57:00.556Z,13.9
2022-10-08T03:58:00.251Z,14.0
2022-10-08T03:59:00.238Z,14.0
2022-10-08T04:00:00.266Z,14.0
2022-10-08T04:01:03.844Z,14.0
2022-10-08T04:02:00.237Z,14.0
2022-10-08T04:03:00.282Z,14.0
2022-10-08T04:04:00.315Z,14.0
2022-10-08T04:05:00.332Z,13.9
2022-10-08T04:06:00.259Z,13.9
2022-10-08T04:07:00.251Z,13.9
2022-10-08T04:08:00.429Z,13.9
2022-10-08T04:09:00.373Z,13.9
2022-10-08T04:10:00.276Z,13.9
2022-10-08T04:11:02.534Z,13.9
2022-10-08T04:12:00.214Z,13.9
2022-10-08T04:13:00.232Z,13.9
2022-10-08T04:14:00.220Z,13.9
2022-10-08T04:15:00.216Z,13.9
2022-10-08T04:16:03.116Z,13.9
2022-10-08T04:17:00.213Z,13.9
2022-10-08T04:18:00.244Z,13.9
2022-10-08T04:19:00.237Z,13.9
2022-10-08T04:20:00.228Z,13.9
2022-10-08T04:21:02.961Z,13.9
2022-10-08T04:22:00.268Z,13.9
2022-10-08T04:23:00.223Z,13.9
2022-10-08T04:24:00.226Z,13.9
2022-10-08T04:25:00.314Z,13.9
2022-10-08T04:26:01.067Z,13.9
2022-10-08T04:27:00.216Z,13.9
2022-10-08T04:28:00.409Z,13.9
2022-10-08T04:29:00.344Z,13.9
2022-10-08T04:30:00.207Z,13.9
2022-10-08T04:31:02.089Z,13.9
2022-10-08T04:32:00.264Z,13.9
2022-10-08T04:33:00.248Z,13.9
2022-10-08T04:34:00.316Z,13.9
2022-10-08T04:35:00.582Z,13.9
2022-10-08T04:36:05.329Z,13.9
2022-10-08T04:37:00.306Z,13.9
2022-10-08T04:38:00.228Z,13.8
2022-10-08T04:39:00.293Z,13.8
2022-10-08T04:40:00.311Z,13.8
2022-10-08T04:41:03.709Z,13.8
2022-10-08T04:42:00.393Z,13.8
2022-10-08T04:43:00.237Z,13.8
2022-10-08T04:44:00.214Z,13.8
2022-10-08T04:45:00.237Z,13.8
2022-10-08T04:46:00.732Z,13.8
2022-10-08T04:47:00.213Z,13.8
2022-10-08T04:48:00.222Z,13.8
2022-10-08T04:49:00.362Z,13.8
2022-10-08T04:50:00.260Z,13.8
2022-10-08T04:51:05.804Z,13.8
2022-10-08T04:52:00.225Z,13.8
2022-10-08T04:53:00.229Z,13.7
2022-10-08T04:54:00.219Z,13.7
2022-10-08T04:55:00.223Z,13.7
2022-10-08T04:56:09.908Z,13.7
2022-10-08T04:57:00.392Z,13.7
2022-10-08T04:58:00.526Z,13.7
2022-10-08T04:59:00.266Z,13.7
2022-10-08T05:00:17.601Z,13.7
2022-10-08T05:01:03.302Z,13.7
2022-10-08T05:02:00.637Z,13.7
2022-10-08T05:03:00.309Z,13.7
2022-10-08T05:04:00.318Z,13.6
2022-10-08T05:05:00.258Z,13.6
2022-10-08T05:06:00.422Z,13.6
2022-10-08T05:07:00.226Z,13.6
2022-10-08T05:08:00.240Z,13.6
2022-10-08T05:09:01.107Z,13.6
2022-10-08T05:10:00.222Z,13.5
2022-10-08T05:11:00.382Z,13.5
2022-10-08T05:12:00.290Z,13.5
2022-10-08T05:13:00.660Z,13.5
2022-10-08T05:14:00.709Z,13.5
2022-10-08T05:15:00.354Z,13.4
2022-10-08T05:16:02.370Z,13.4
2022-10-08T05:17:00.215Z,13.4
2022-10-08T05:18:00.233Z,13.4
2022-10-08T05:19:00.283Z,13.4
2022-10-08T05:20:00.451Z,13.4
2022-10-08T05:21:03.577Z,13.3
2022-10-08T05:22:00.243Z,13.3
2022-10-08T05:23:00.265Z,13.3
2022-10-08T05:24:04.169Z,13.2
2022-10-08T05:25:00.226Z,13.2
2022-10-08T05:26:00.780Z,13.2
2022-10-08T05:27:00.218Z,13.2
2022-10-08T05:28:01.170Z,13.2
2022-10-08T05:29:00.454Z,13.2
2022-10-08T05:30:00.262Z,13.2
2022-10-08T05:31:00.691Z,13.2
2022-10-08T05:32:00.232Z,13.2
2022-10-08T05:33:00.240Z,13.2
2022-10-08T05:34:00.239Z,13.2
2022-10-08T05:35:00.214Z,13.2
2022-10-08T05:36:03.028Z,13.2
2022-10-08T05:37:00.219Z,13.2
2022-10-08T05:38:00.213Z,13.2
2022-10-08T05:39:02.657Z,13.2
2022-10-08T05:40:00.232Z,13.1
2022-10-08T05:41:08.850Z,13.2
2022-10-08T05:42:00.253Z,13.2
2022-10-08T05:43:00.238Z,13.2
2022-10-08T05:44:00.348Z,13.2
2022-10-08T05:45:00.233Z,13.2
2022-10-08T05:46:00.614Z,13.2
2022-10-08T05:47:00.236Z,13.2
2022-10-08T05:48:00.243Z,13.2
2022-10-08T05:49:01.959Z,13.3
2022-10-08T05:50:00.236Z,13.3
2022-10-08T05:51:05.078Z,13.4
2022-10-08T05:52:00.222Z,13.4
2022-10-08T05:53:00.232Z,13.4
2022-10-08T05:54:00.251Z,13.5
2022-10-08T05:55:00.229Z,13.5
2022-10-08T05:56:01.490Z,13.6
2022-10-08T05:57:00.215Z,13.6
2022-10-08T05:58:00.234Z,13.7
2022-10-08T05:59:00.305Z,13.7
2022-10-08T06:00:00.223Z,13.7
2022-10-08T06:01:01.775Z,13.8
2022-10-08T06:02:00.272Z,13.8
2022-10-08T06:03:00.419Z,13.9
2022-10-08T06:04:08.499Z,13.9
2022-10-08T06:05:00.316Z,14.0
2022-10-08T06:06:02.478Z,14.0
2022-10-08T06:07:00.218Z,14.1
2022-10-08T06:08:00.235Z,14.1
2022-10-08T06:09:00.947Z,14.1
2022-10-08T06:10:00.265Z,14.1
2022-10-08T06:11:00.814Z,14.1
2022-10-08T06:12:00.215Z,14.1
2022-10-08T06:13:00.227Z,14.1
2022-10-08T06:14:01.122Z,14.2
2022-10-08T06:15:00.230Z,14.2
2022-10-08T06:16:03.583Z,14.3
2022-10-08T06:17:00.633Z,14.3
2022-10-08T06:18:00.225Z,14.3
2022-10-08T06:19:00.401Z,14.3
2022-10-08T06:20:00.239Z,14.4
2022-10-08T06:21:03.409Z,14.4
2022-10-08T06:22:00.252Z,14.5
2022-10-08T06:23:00.224Z,14.5
2022-10-08T06:24:02.825Z,14.5
2022-10-08T06:25:00.217Z,14.6
2022-10-08T06:26:02.934Z,14.6
2022-10-08T06:27:00.212Z,14.7
2022-10-08T06:28:00.308Z,14.8
2022-10-08T06:29:00.323Z,14.9
2022-10-08T06:30:00.281Z,14.9
2022-10-08T06:31:00.604Z,15.0
2022-10-08T06:32:00.220Z,15.1
2022-10-08T06:33:00.344Z,15.1
2022-10-08T06:34:00.549Z,15.2
2022-10-08T06:35:00.242Z,15.3
2022-10-08T06:36:03.217Z,15.6
2022-10-08T06:37:00.205Z,15.7
2022-10-08T06:38:00.546Z,15.8
2022-10-08T06:39:04.754Z,15.8
2022-10-08T06:40:00.233Z,15.9
2022-10-08T06:41:00.233Z,16.1
2022-10-08T06:42:00.211Z,16.6
2022-10-08T06:43:00.246Z,16.6
2022-10-08T06:44:02.323Z,16.9
2022-10-08T06:45:02.373Z,17.1
2022-10-08T06:46:04.982Z,17.5
2022-10-08T06:47:00.296Z,17.7
2022-10-08T06:48:00.200Z,18.1
2022-10-08T06:49:01.064Z,18.5
2022-10-08T06:50:00.353Z,18.8
2022-10-08T06:51:02.825Z,18.9
2022-10-08T06:52:00.229Z,18.9
2022-10-08T06:53:01.425Z,18.9
2022-10-08T06:54:07.003Z,19.0
2022-10-08T06:55:00.275Z,19.0
2022-10-08T06:56:02.925Z,19.0
2022-10-08T06:57:00.212Z,18.9
2022-10-08T06:58:01.250Z,19.0
2022-10-08T06:59:00.272Z,19.1
2022-10-08T07:00:00.328Z,19.4
2022-10-08T07:01:01.297Z,19.2
2022-10-08T07:02:00.313Z,19.0
2022-10-08T07:03:00.210Z,18.9
2022-10-08T07:04:01.076Z,18.9
2022-10-08T07:05:00.216Z,19.0
2022-10-08T07:06:03.630Z,19.3
2022-10-08T07:07:00.213Z,19.2
2022-10-08T07:08:00.253Z,19.4
2022-10-08T07:09:01.741Z,19.2
2022-10-08T07:10:00.496Z,19.0
2022-10-08T07:11:10.531Z,18.8
2022-10-08T07:12:00.209Z,18.9
2022-10-08T07:13:00.209Z,19.1
2022-10-08T07:14:00.335Z,19.3
2022-10-08T07:15:00.302Z,19.5
2022-10-08T07:16:02.828Z,19.6
2022-10-08T07:17:00.241Z,19.6
2022-10-08T07:18:00.257Z,19.7
2022-10-08T07:19:00.457Z,19.8
2022-10-08T07:20:00.336Z,20.0
2022-10-08T07:21:00.717Z,20.3
2022-10-08T07:22:01.463Z,20.4
2022-10-08T07:23:00.214Z,20.2
2022-10-08T07:24:00.555Z,20.3
2022-10-08T07:25:00.226Z,20.4
2022-10-08T07:26:03.174Z,20.6
2022-10-08T07:27:00.252Z,20.3
2022-10-08T07:28:00.288Z,20.0
2022-10-08T07:29:05.835Z,20.0
2022-10-08T07:30:00.255Z,19.8
2022-10-08T07:31:03.517Z,19.9
2022-10-08T07:32:00.291Z,19.8
2022-10-08T07:33:00.244Z,19.9
2022-10-08T07:34:02.335Z,19.8
2022-10-08T07:35:00.345Z,19.6
2022-10-08T07:36:09.909Z,19.3
2022-10-08T07:37:00.233Z,19.2
2022-10-08T07:38:00.224Z,19.4
2022-10-08T07:39:04.087Z,19.5
2022-10-08T07:40:00.215Z,19.5
2022-10-08T07:41:00.454Z,19.3
2022-10-08T07:42:00.221Z,19.4
2022-10-08T07:43:00.355Z,19.2
2022-10-08T07:44:01.440Z,19.4
2022-10-08T07:45:00.247Z,19.6
2022-10-08T07:46:00.535Z,19.6
2022-10-08T07:47:00.247Z,19.6
2022-10-08T07:48:00.243Z,19.7
2022-10-08T07:49:01.466Z,19.9
2022-10-08T07:50:00.232Z,19.9
2022-10-08T07:51:07.873Z,19.3
2022-10-08T07:52:00.240Z,19.2
2022-10-08T07:53:00.245Z,19.1
2022-10-08T07:54:02.893Z,19.1
2022-10-08T07:55:00.255Z,19.0
2022-10-08T07:56:00.214Z,18.7
2022-10-08T07:57:00.234Z,18.8
2022-10-08T07:58:00.374Z,18.9
2022-10-08T07:59:01.851Z,18.9
2022-10-08T08:00:00.256Z,18.8
2022-10-08T08:01:01.722Z,19.2
2022-10-08T08:02:00.239Z,19.6
2022-10-08T08:03:00.216Z,19.8
2022-10-08T08:04:03.374Z,19.6
2022-10-08T08:05:00.235Z,19.6
2022-10-08T08:06:02.408Z,20.0
2022-10-08T08:07:00.206Z,20.2
2022-10-08T08:08:00.632Z,20.0
2022-10-08T08:09:00.393Z,19.8
2022-10-08T08:10:00.283Z,19.5
2022-10-08T08:11:02.642Z,19.4
2022-10-08T08:12:00.251Z,19.7
2022-10-08T08:13:00.222Z,20.0
2022-10-08T08:14:00.449Z,20.1
2022-10-08T08:15:00.259Z,20.3
2022-10-08T08:16:03.120Z,20.1
2022-10-08T08:17:00.351Z,20.0
2022-10-08T08:18:00.269Z,20.0
2022-10-08T08:19:00.768Z,20.3
2022-10-08T08:20:00.247Z,20.5
2022-10-08T08:21:02.593Z,20.6
2022-10-08T08:22:00.241Z,20.6
2022-10-08T08:23:00.240Z,20.5
2022-10-08T08:24:05.140Z,20.2
2022-10-08T08:25:00.262Z,19.8
2022-10-08T08:26:02.358Z,20.0
2022-10-08T08:27:00.244Z,19.9
2022-10-08T08:28:00.314Z,20.0
2022-10-08T08:29:03.317Z,19.8
2022-10-08T08:30:00.270Z,19.7
2022-10-08T08:31:09.271Z,19.8
2022-10-08T08:32:00.268Z,19.9
2022-10-08T08:33:00.220Z,19.7
2022-10-08T08:34:03.272Z,19.9
2022-10-08T08:35:00.241Z,20.1
2022-10-08T08:36:00.423Z,20.3
2022-10-08T08:37:00.270Z,20.1
2022-10-08T08:38:00.240Z,19.9
2022-10-08T08:39:00.379Z,19.8
2022-10-08T08:40:00.256Z,19.5
2022-10-08T08:41:20.764Z,19.6
2022-10-08T08:42:20.133Z,19.6
2022-10-08T08:43:00.234Z,19.6
2022-10-08T08:44:08.581Z,19.6
2022-10-08T08:45:05.105Z,19.5
2022-10-08T08:46:01.529Z,19.3
2022-10-08T08:47:05.941Z,19.2
2022-10-08T08:48:11.184Z,19.2
2022-10-08T08:49:10.438Z,19.1
2022-10-08T08:50:10.183Z,19.1
2022-10-08T08:51:00.275Z,19.1
2022-10-08T08:52:02.299Z,19.1
2022-10-08T08:53:01.235Z,19.1
2022-10-08T08:54:00.626Z,19.0
2022-10-08T08:55:00.915Z,18.9
2022-10-08T08:56:03.647Z,19.0
2022-10-08T08:57:11.313Z,18.9
2022-10-08T08:58:11.603Z,18.7
2022-10-08T08:59:20.126Z,18.3
2022-10-08T09:00:13.775Z,18.3
2022-10-08T09:01:13.483Z,18.2
2022-10-08T09:02:04.710Z,18.3
2022-10-08T09:03:04.618Z,18.2
2022-10-08T09:04:09.821Z,18.2
2022-10-08T09:05:05.044Z,18.2
2022-10-08T09:06:06.227Z,18.2
2022-10-08T09:07:04.724Z,18.3
2022-10-08T09:08:10.334Z,18.3
2022-10-08T09:09:13.189Z,18.3
2022-10-08T09:10:01.566Z,18.3
2022-10-08T09:11:02.085Z,18.3
2022-10-08T09:12:11.843Z,18.3
2022-10-08T09:13:00.873Z,18.4
2022-10-08T09:14:10.162Z,18.4
2022-10-08T09:15:01.515Z,18.5
2022-10-08T09:16:00.486Z,18.5
2022-10-08T09:17:13.577Z,18.5
2022-10-08T09:18:02.498Z,18.5
2022-10-08T09:19:00.768Z,18.6
2022-10-08T09:20:00.855Z,18.7
2022-10-08T09:21:00.235Z,18.8
2022-10-08T09:22:00.211Z,18.9
2022-10-08T09:23:00.350Z,18.8
2022-10-08T09:24:00.460Z,18.9
2022-10-08T09:25:03.652Z,18.9
2022-10-08T09:26:08.960Z,19.0
2022-10-08T09:27:00.563Z,19.0
2022-10-08T09:28:01.529Z,19.0
2022-10-08T09:29:02.297Z,18.9
2022-10-08T09:30:00.247Z,18.9
2022-10-08T09:31:12.349Z,18.9
2022-10-08T09:32:00.286Z,18.9
2022-10-08T09:33:03.732Z,18.6
2022-10-08T09:34:13.977Z,18.7
2022-10-08T09:35:06.601Z,18.8
2022-10-08T09:36:00.237Z,18.8
2022-10-08T09:37:00.203Z,18.8
2022-10-08T09:38:05.416Z,18.8
2022-10-08T09:39:01.774Z,18.9
2022-10-08T09:40:11.306Z,18.7
2022-10-08T09:41:05.497Z,18.7
2022-10-08T09:42:11.807Z,18.7
2022-10-08T09:43:10.396Z,18.6
2022-10-08T09:44:11.039Z,18.6
2022-10-08T09:45:00.424Z,18.7
2022-10-08T09:46:06.571Z,18.7
2022-10-08T09:47:05.187Z,18.7
2022-10-08T09:48:11.764Z,18.8
2022-10-08T09:49:20.148Z,18.9
2022-10-08T09:50:05.834Z,18.9
2022-10-08T09:51:04.803Z,18.9
2022-10-08T09:52:05.937Z,19.0
2022-10-08T09:53:00.288Z,19.1
2022-10-08T09:54:00.664Z,19.1
2022-10-08T09:55:08.650Z,19.2
2022-10-08T09:56:02.991Z,19.3
2022-10-08T09:57:01.025Z,19.3
2022-10-08T09:58:01.199Z,19.3
2022-10-08T09:59:03.771Z,19.3
2022-10-08T10:00:02.814Z,19.4
2022-10-08T10:01:05.432Z,19.5
2022-10-08T10:02:20.130Z,19.6
2022-10-08T10:03:02.714Z,19.6
2022-10-08T10:04:02.273Z,19.6
2022-10-08T10:05:04.378Z,19.6
2022-10-08T10:06:00.346Z,19.6
2022-10-08T10:07:00.779Z,19.6
2022-10-08T10:08:00.624Z,19.6
2022-10-08T10:09:05.063Z,19.7
2022-10-08T10:10:01.682Z,19.7
2022-10-08T10:11:00.253Z,19.7
2022-10-08T10:12:08.277Z,19.8
2022-10-08T10:13:08.439Z,19.8
2022-10-08T10:14:06.076Z,19.7
2022-10-08T10:15:03.847Z,19.7
2022-10-08T10:16:09.818Z,19.7
2022-10-08T10:17:05.126Z,19.8
2022-10-08T10:18:04.270Z,19.8
2022-10-08T10:19:05.747Z,19.9
2022-10-08T10:20:09.980Z,19.9
2022-10-08T10:21:04.558Z,19.9
2022-10-08T10:22:05.551Z,19.9
2022-10-08T10:23:03.733Z,19.9
2022-10-08T10:24:03.506Z,19.9
2022-10-08T10:25:12.408Z,20.0
2022-10-08T10:26:20.131Z,20.1
2022-10-08T10:27:09.558Z,20.1
2022-10-08T10:28:04.720Z,20.1
2022-10-08T10:29:07.545Z,20.2
2022-10-08T10:30:02.896Z,20.3
2022-10-08T10:31:04.262Z,20.4
2022-10-08T10:32:14.486Z,20.5
2022-10-08T10:33:13.153Z,20.5
2022-10-08T10:34:03.479Z,20.5
2022-10-08T10:35:11.450Z,20.6
2022-10-08T10:36:05.968Z,20.5
2022-10-08T10:37:04.998Z,20.5
2022-10-08T10:38:10.164Z,20.5
2022-10-08T10:39:11.478Z,20.4
2022-10-08T10:40:20.151Z,20.2
2022-10-08T10:41:20.125Z,20.1
2022-10-08T10:42:02.251Z,20.1
2022-10-08T10:43:14.829Z,20.1
2022-10-08T10:44:05.068Z,20.1
2022-10-08T10:45:14.909Z,20.0
2022-10-08T10:46:14.090Z,20.0
2022-10-08T10:47:02.421Z,19.9
2022-10-08T10:48:00.277Z,19.7
2022-10-08T10:49:00.299Z,19.7
2022-10-08T10:50:01.011Z,19.6
2022-10-08T10:51:18.737Z,19.6
2022-10-08T10:52:09.820Z,19.6
2022-10-08T10:53:08.659Z,19.6
2022-10-08T10:54:20.124Z,19.5
2022-10-08T10:55:15.696Z,19.5
2022-10-08T10:56:11.834Z,19.5
2022-10-08T10:57:07.685Z,19.4
2022-10-08T10:58:20.131Z,19.4
2022-10-08T10:59:20.124Z,19.4
2022-10-08T11:00:07.446Z,19.4
2022-10-08T11:01:03.671Z,19.4
2022-10-08T11:02:11.291Z,19.3
2022-10-08T11:03:18.128Z,19.2
2022-10-08T11:04:09.203Z,19.2
2022-10-08T11:05:10.843Z,19.2
2022-10-08T11:06:20.127Z,19.1
2022-10-08T11:07:20.143Z,19.0
2022-10-08T11:08:06.595Z,19.0
2022-10-08T11:09:10.167Z,19.0
2022-10-08T11:10:07.119Z,19.0
2022-10-08T11:11:16.498Z,19.1
2022-10-08T11:12:11.823Z,19.1
2022-10-08T11:13:11.240Z,19.1
2022-10-08T11:14:06.186Z,19.1
2022-10-08T11:15:20.121Z,18.9
2022-10-08T11:16:14.745Z,18.9
2022-10-08T11:17:03.496Z,18.9
2022-10-08T11:18:13.393Z,18.8
2022-10-08T11:19:03.307Z,18.8
2022-10-08T11:20:01.216Z,18.8
2022-10-08T11:21:11.178Z,18.8
2022-10-08T11:22:06.013Z,18.8
2022-10-08T11:23:08.183Z,18.8
2022-10-08T11:24:13.995Z,18.8
2022-10-08T11:25:11.173Z,18.7
2022-10-08T11:26:21.810Z,18.8
2022-10-08T11:27:18.287Z,18.8
2022-10-08T11:28:11.243Z,18.8
2022-10-08T11:29:10.156Z,18.8
2022-10-08T11:30:12.722Z,18.8
2022-10-08T11:31:07.799Z,18.8
2022-10-08T11:32:01.154Z,18.8
2022-10-08T11:33:00.576Z,18.8
2022-10-08T11:34:01.056Z,18.9
2022-10-08T11:35:10.149Z,18.9
2022-10-08T11:36:17.839Z,18.8
2022-10-08T11:37:11.192Z,18.8
2022-10-08T11:38:09.566Z,18.8
2022-10-08T11:39:20.130Z,18.8
2022-10-08T11:40:13.782Z,18.8
2022-10-08T11:41:09.394Z,18.8
2022-10-08T11:42:09.784Z,18.8
2022-10-08T11:43:09.675Z,18.7
2022-10-08T11:44:02.781Z,18.6
2022-10-08T11:45:13.422Z,18.6
2022-10-08T11:46:20.205Z,18.5
2022-10-08T11:47:20.142Z,18.5
2022-10-08T11:48:20.122Z,18.5
2022-10-08T11:49:09.166Z,18.5
2022-10-08T11:50:02.446Z,18.5
2022-10-08T11:51:20.135Z,18.5
2022-10-08T11:52:12.641Z,18.5
2022-10-08T11:53:10.210Z,18.4
2022-10-08T11:54:20.131Z,18.3
2022-10-08T11:55:00.735Z,18.3
2022-10-08T11:56:00.352Z,18.3
2022-10-08T11:57:11.187Z,18.4
2022-10-08T11:58:08.878Z,18.3
2022-10-08T11:59:07.345Z,18.3
2022-10-08T12:00:08.348Z,18.2
2022-10-08T12:01:02.367Z,18.2
2022-10-08T12:02:03.276Z,18.2
2022-10-08T12:03:02.936Z,18.2
2022-10-08T12:04:08.013Z,18.2
2022-10-08T12:05:20.130Z,18.1
2022-10-08T12:06:15.424Z,18.2
2022-10-08T12:07:04.202Z,18.2
2022-10-08T12:08:00.444Z,18.2
2022-10-08T12:09:03.624Z,18.1
2022-10-08T12:10:17.660Z,18.1
2022-10-08T12:11:20.122Z,18.1
2022-10-08T12:12:12.027Z,18.1
2022-10-08T12:13:16.868Z,18.1
2022-10-08T12:14:10.156Z,18.1
2022-10-08T12:15:00.250Z,18.1
2022-10-08T12:16:01.587Z,18.0
2022-10-08T12:17:03.499Z,18.0
2022-10-08T12:18:11.365Z,18.0
2022-10-08T12:19:00.228Z,18.0
2022-10-08T12:20:11.606Z,18.0
2022-10-08T12:21:17.643Z,18.0
2022-10-08T12:22:10.168Z,18.0
2022-10-08T12:23:09.552Z,18.0
2022-10-08T12:24:00.240Z,17.9
2022-10-08T12:25:00.816Z,17.9
2022-10-08T12:26:00.199Z,17.9
2022-10-08T12:27:17.801Z,17.9
2022-10-08T12:28:20.201Z,17.8
2022-10-08T12:29:00.219Z,17.8
2022-10-08T12:30:11.008Z,17.8
2022-10-08T12:31:20.220Z,17.7
2022-10-08T12:32:00.790Z,17.7
2022-10-08T12:33:00.312Z,17.7
2022-10-08T12:34:09.949Z,17.6
2022-10-08T12:35:00.238Z,17.6
2022-10-08T12:36:20.123Z,17.4
2022-10-08T12:37:14.594Z,17.4
2022-10-08T12:38:04.515Z,17.4
2022-10-08T12:39:10.168Z,17.4
2022-10-08T12:40:08.252Z,17.4
2022-10-08T12:41:04.492Z,17.4
2022-10-08T12:42:08.528Z,17.4
2022-10-08T12:43:13.281Z,17.4
2022-10-08T12:44:07.675Z,17.4
2022-10-08T12:45:10.157Z,17.5
2022-10-08T12:46:12.356Z,17.4
2022-10-08T12:47:11.686Z,17.4
2022-10-08T12:48:14.174Z,17.4
2022-10-08T12:49:20.145Z,17.3
2022-10-08T12:50:20.121Z,17.4
2022-10-08T12:51:11.348Z,17.4
2022-10-08T12:52:10.917Z,17.4
2022-10-08T12:53:03.263Z,17.4
2022-10-08T12:54:01.462Z,17.4
2022-10-08T12:55:02.800Z,17.3
2022-10-08T12:56:00.574Z,17.3
2022-10-08T12:57:07.738Z,17.3
2022-10-08T12:58:00.254Z,17.3
2022-10-08T12:59:03.150Z,17.3
2022-10-08T13:00:10.036Z,17.3
2022-10-08T13:01:03.299Z,17.3
2022-10-08T13:02:00.367Z,17.2
2022-10-08T13:03:02.503Z,17.2
2022-10-08T13:04:15.490Z,17.3
2022-10-08T13:05:00.465Z,17.3
2022-10-08T13:06:15.446Z,17.2
2022-10-08T13:07:20.126Z,17.3
2022-10-08T13:08:17.457Z,17.2
2022-10-08T13:09:00.406Z,17.2
2022-10-08T13:10:11.334Z,17.2
2022-10-08T13:11:04.339Z,17.2
2022-10-08T13:12:03.924Z,17.2
2022-10-08T13:13:03.949Z,17.2
2022-10-08T13:14:00.230Z,17.2
2022-10-08T13:15:03.385Z,17.2
2022-10-08T13:16:02.311Z,17.2
2022-10-08T13:17:01.380Z,17.2
2022-10-08T13:18:12.641Z,17.2